Time;durP1;ratioP1;P1;durP2;ratioP2;P2;SDS_P1;SDS_P2;PMS_P1;PMS_P2;Temp;Humidity;BMP_temperature;BMP_pressure;BME280_temperature;BME280_humidity;BME280_pressure;Samples;Min_cycle;Max_cycle;Signal;HPM_P1;HPM_P2
2022/04/17 00:02:24;;;;;;;4.18;2.15;;;8.40;90.90;;;;;;5012838;28;20114;-87
2022/04/17 00:04:50;;;;;;;3.63;2.25;;;8.30;91.00;;;;;;5015869;28;20029;-87
2022/04/17 00:07:16;;;;;;;3.90;2.17;;;8.40;91.00;;;;;;5015981;28;20073;-88
2022/04/17 00:09:41;;;;;;;2.72;1.73;;;8.30;91.10;;;;;;5016994;28;20047;-86
2022/04/17 00:12:08;;;;;;;4.03;2.17;;;8.30;91.20;;;;;;5015674;28;20119;-87
2022/04/17 00:14:34;;;;;;;3.85;2.22;;;8.20;91.20;;;;;;5015660;28;20069;-88
2022/04/17 00:16:59;;;;;;;3.85;2.42;;;8.20;91.40;;;;;;5016002;28;20065;-87
2022/04/17 00:19:25;;;;;;;5.07;2.47;;;8.10;91.40;;;;;;5015642;28;20113;-87
2022/04/17 00:21:50;;;;;;;3.90;2.08;;;8.10;91.40;;;;;;5015793;28;20061;-87
2022/04/17 00:24:16;;;;;;;3.80;2.38;;;8.10;91.50;;;;;;5015718;28;20547;-87
2022/04/17 00:26:42;;;;;;;3.40;2.08;;;8.10;91.80;;;;;;5015530;28;20036;-87
2022/04/17 00:29:07;;;;;;;3.55;2.42;;;8.00;91.60;;;;;;5015627;28;20022;-87
2022/04/17 00:31:33;;;;;;;4.20;2.58;;;8.00;91.70;;;;;;5015559;28;20469;-87
2022/04/17 00:33:59;;;;;;;4.00;2.75;;;7.90;91.70;;;;;;5015497;28;20440;-88
2022/04/17 00:36:25;;;;;;;5.30;2.70;;;7.90;91.80;;;;;;5015161;28;20100;-88
2022/04/17 00:38:50;;;;;;;4.80;2.67;;;7.90;92.00;;;;;;5016013;28;20129;-87
2022/04/17 00:41:16;;;;;;;4.53;2.70;;;7.90;92.00;;;;;;5017330;28;20021;-88
2022/04/17 00:43:48;;;;;;;4.65;2.45;;;7.80;92.10;;;;;;5015615;28;20028;-86
2022/04/17 00:46:15;;;;;;;4.60;2.60;;;7.90;92.10;;;;;;5015867;28;20486;-87
2022/04/17 00:48:41;;;;;;;4.50;2.60;;;7.80;92.10;;;;;;5015435;28;20324;-86
2022/04/17 00:51:08;;;;;;;6.18;2.60;;;7.80;92.20;;;;;;5016719;28;20361;-89
2022/04/17 00:53:35;;;;;;;4.72;2.58;;;7.80;92.30;;;;;;5015650;28;20026;-88
2022/04/17 00:56:02;;;;;;;4.55;2.50;;;7.70;92.30;;;;;;5015604;28;20036;-87
2022/04/17 00:58:31;;;;;;;4.38;2.50;;;7.70;92.30;;;;;;5015682;28;20063;-88
2022/04/17 01:00:57;;;;;;;5.85;2.90;;;7.60;92.40;;;;;;5015995;28;20084;-87
2022/04/17 01:03:22;;;;;;;3.75;2.60;;;7.60;92.60;;;;;;5015926;28;20029;-87
2022/04/17 01:05:48;;;;;;;4.57;2.72;;;7.60;92.60;;;;;;5015351;28;20380;-86
2022/04/17 01:08:24;;;;;;;5.55;3.08;;;7.50;92.60;;;;;;5016176;28;20038;-87
2022/04/17 01:10:49;;;;;;;4.60;2.78;;;7.50;92.70;;;;;;5016659;28;20097;-87
2022/04/17 01:13:17;;;;;;;5.25;2.80;;;7.50;92.80;;;;;;5016367;28;20484;-86
2022/04/17 01:15:43;;;;;;;3.60;2.50;;;7.50;92.80;;;;;;5032221;28;20069;-87
2022/04/17 01:18:10;;;;;;;3.95;2.67;;;7.40;92.90;;;;;;5015956;28;20010;-87
2022/04/17 01:20:37;;;;;;;4.63;2.72;;;7.40;92.90;;;;;;5014943;28;20018;-86
2022/04/17 01:28:32;;;;;;;3.97;2.45;;;7.30;93.20;;;;;;5015989;28;20087;-88
2022/04/17 01:30:57;;;;;;;3.85;2.75;;;7.20;93.30;;;;;;5014414;28;20018;-87
2022/04/17 01:33:23;;;;;;;5.90;3.17;;;7.20;93.40;;;;;;5015854;28;20160;-87
2022/04/17 01:35:49;;;;;;;5.55;3.13;;;7.10;93.50;;;;;;5014450;28;20034;-88
2022/04/17 01:38:15;;;;;;;4.80;2.83;;;7.00;93.60;;;;;;5014364;28;20049;-87
2022/04/17 01:40:42;;;;;;;5.30;2.83;;;7.00;93.70;;;;;;5015778;28;20484;-88
2022/04/17 01:43:11;;;;;;;5.75;2.70;;;7.00;93.90;;;;;;5014601;28;20196;-87
2022/04/17 01:45:37;;;;;;;4.65;2.88;;;6.90;94.00;;;;;;5014097;28;20041;-86
2022/04/17 01:48:04;;;;;;;4.53;2.72;;;6.90;94.10;;;;;;5030856;28;20376;-87
2022/04/17 01:50:30;;;;;;;4.70;2.65;;;6.80;94.20;;;;;;5014051;28;20109;-86
2022/04/17 01:53:00;;;;;;;3.70;2.50;;;6.80;94.30;;;;;;5014444;28;20022;-88
2022/04/17 01:55:29;;;;;;;4.85;2.97;;;6.70;94.70;;;;;;5013900;28;20041;-87
2022/04/17 01:57:56;;;;;;;4.63;3.05;;;6.70;94.60;;;;;;5014964;28;20118;-87
2022/04/17 02:00:22;;;;;;;5.90;2.90;;;6.60;94.70;;;;;;5013698;28;20535;-87
2022/04/17 02:02:48;;;;;;;5.30;3.13;;;6.60;94.80;;;;;;5013911;28;20025;-87
2022/04/17 02:05:14;;;;;;;4.20;2.67;;;6.60;94.80;;;;;;5013990;28;20056;-88
2022/04/17 02:07:40;;;;;;;4.60;2.80;;;6.50;94.90;;;;;;5015625;28;20116;-89
2022/04/17 02:10:06;;;;;;;4.20;2.65;;;6.50;95.10;;;;;;5014086;28;20475;-87
2022/04/17 02:12:34;;;;;;;5.72;3.28;;;6.40;95.20;;;;;;5015194;28;20040;-87
2022/04/17 02:15:00;;;;;;;7.07;3.55;;;6.50;95.40;;;;;;5030224;28;20022;-88
2022/04/17 02:17:25;;;;;;;6.18;3.00;;;6.40;95.40;;;;;;5015172;28;20032;-88
2022/04/17 02:19:51;;;;;;;4.07;2.78;;;6.40;95.50;;;;;;5014283;28;20025;-89
2022/04/17 02:22:17;;;;;;;11.27;3.90;;;6.30;95.90;;;;;;5013712;28;20021;-88
2022/04/17 02:24:43;;;;;;;6.32;3.83;;;6.30;96.00;;;;;;5013627;28;20057;-88
2022/04/17 02:27:08;;;;;;;7.90;3.60;;;6.30;95.80;;;;;;5013551;28;20022;-87
2022/04/17 02:29:34;;;;;;;4.50;3.30;;;6.20;95.90;;;;;;5013571;28;20108;-89
2022/04/17 02:32:00;;;;;;;5.53;3.22;;;6.20;96.00;;;;;;5013394;28;20022;-88
2022/04/17 02:34:25;;;;;;;5.22;3.45;;;6.20;96.20;;;;;;5013884;28;20420;-87
2022/04/17 02:36:53;;;;;;;4.78;3.22;;;6.20;96.20;;;;;;5013243;28;20058;-89
2022/04/17 02:39:18;;;;;;;6.00;3.58;;;6.20;96.30;;;;;;5013844;28;20498;-88
2022/04/17 02:41:44;;;;;;;8.70;3.67;;;6.20;96.40;;;;;;5014037;28;20022;-87
2022/04/17 02:44:10;;;;;;;5.28;3.40;;;6.20;96.70;;;;;;5013327;28;20053;-85
2022/04/17 02:49:20;;;;;;;5.78;3.95;;;6.10;96.60;;;;;;5014993;28;20052;-87
2022/04/17 02:51:46;;;;;;;6.00;3.85;;;6.00;96.70;;;;;;5013766;28;20091;-88
2022/04/17 02:54:11;;;;;;;6.28;4.25;;;6.00;96.90;;;;;;5014516;28;20093;-86
2022/04/17 02:56:37;;;;;;;5.80;3.75;;;6.00;97.00;;;;;;5014830;28;20030;-86
2022/04/17 02:59:03;;;;;;;6.82;4.00;;;5.90;97.20;;;;;;5013365;28;20482;-86
2022/04/17 03:06:59;;;;;;;5.90;3.92;;;5.80;97.50;;;;;;5015950;28;20095;-86
2022/04/17 03:09:25;;;;;;;6.75;4.30;;;5.80;97.70;;;;;;5017248;28;20039;-86
2022/04/17 03:11:50;;;;;;;5.35;3.65;;;5.70;97.90;;;;;;5015862;28;20026;-86
2022/04/17 03:14:16;;;;;;;7.32;3.90;;;5.70;98.00;;;;;;5016036;28;20097;-88
2022/04/17 03:16:42;;;;;;;6.55;4.10;;;5.70;98.10;;;;;;5016270;28;20066;-86
2022/04/17 03:19:07;;;;;;;6.18;4.07;;;5.70;98.30;;;;;;5015634;28;20026;-87
2022/04/17 03:21:33;;;;;;;7.25;4.22;;;5.60;98.30;;;;;;5016649;28;20037;-87
2022/04/17 03:23:59;;;;;;;6.32;4.15;;;5.60;98.40;;;;;;5018976;28;20021;-87
2022/04/17 03:26:24;;;;;;;7.93;4.30;;;5.60;98.60;;;;;;5017383;28;20033;-85
2022/04/17 03:28:54;;;;;;;7.13;4.53;;;5.60;98.70;;;;;;5028471;28;20025;-86
2022/04/17 03:31:20;;;;;;;6.85;4.32;;;5.60;98.80;;;;;;5027284;28;20014;-85
2022/04/17 03:33:45;;;;;;;7.22;4.60;;;5.60;98.90;;;;;;5034666;28;20050;-86
2022/04/17 03:36:11;;;;;;;8.05;4.80;;;5.60;99.00;;;;;;5031673;28;20105;-84
2022/04/17 03:38:38;;;;;;;7.32;4.50;;;5.60;99.10;;;;;;5020948;28;20037;-86
2022/04/17 03:41:03;;;;;;;6.70;4.47;;;5.60;99.10;;;;;;5022922;28;20072;-84
2022/04/17 03:43:29;;;;;;;7.97;4.75;;;5.50;99.20;;;;;;5035635;28;20082;-84
2022/04/17 03:45:55;;;;;;;8.35;5.00;;;5.50;99.30;;;;;;5035776;28;20026;-88
2022/04/17 03:48:20;;;;;;;7.45;4.68;;;5.50;99.30;;;;;;5037966;28;20045;-83
2022/04/17 03:50:47;;;;;;;7.30;4.60;;;5.50;99.40;;;;;;5021269;28;20029;-84
2022/04/17 03:53:13;;;;;;;7.22;4.60;;;5.60;99.70;;;;;;5021630;28;20014;-84
2022/04/17 03:55:39;;;;;;;7.97;4.80;;;5.60;99.50;;;;;;5014849;28;20045;-83
2022/04/17 03:58:05;;;;;;;8.38;5.28;;;5.60;99.60;;;;;;5007030;28;20026;-85
2022/04/17 04:00:31;;;;;;;7.90;4.85;;;5.50;99.60;;;;;;5006541;28;20022;-86
2022/04/17 04:02:56;;;;;;;8.52;4.70;;;5.60;99.70;;;;;;5020884;28;20084;-85
2022/04/17 04:05:22;;;;;;;8.05;5.22;;;5.60;99.80;;;;;;5000585;28;20026;-85
2022/04/17 04:07:47;;;;;;;6.65;4.68;;;5.50;99.80;;;;;;5001037;28;20022;-86
2022/04/17 04:10:14;;;;;;;7.50;5.10;;;5.50;99.90;;;;;;5000991;28;20053;-86
2022/04/17 04:12:40;;;;;;;6.68;4.90;;;5.50;99.90;;;;;;5000725;28;20448;-85
2022/04/17 04:15:07;;;;;;;8.27;5.65;;;5.50;99.90;;;;;;5000666;28;20050;-85
2022/04/17 04:17:34;;;;;;;12.45;5.55;;;5.50;99.90;;;;;;5000689;28;20026;-87
2022/04/17 04:20:00;;;;;;;7.28;4.65;;;5.60;99.90;;;;;;5001204;28;20360;-85
2022/04/17 04:22:25;;;;;;;8.68;4.90;;;5.50;99.90;;;;;;5018189;28;20099;-85
2022/04/17 04:24:51;;;;;;;8.90;5.30;;;5.50;99.90;;;;;;5000241;28;20029;-84
2022/04/17 04:30:02;;;;;;;7.75;5.07;;;5.40;99.90;;;;;;5018232;28;20091;-86
2022/04/17 04:32:28;;;;;;;7.55;4.63;;;5.40;99.90;;;;;;5016948;28;20116;-86
2022/04/17 04:35:01;;;;;;;7.13;4.50;;;5.40;99.90;;;;;;4999617;28;20092;-86
2022/04/17 04:37:27;;;;;;;6.85;4.45;;;5.40;99.90;;;;;;5008348;28;20046;-87
2022/04/17 04:39:53;;;;;;;8.32;4.90;;;5.30;99.90;;;;;;5016063;28;20033;-85
2022/04/17 04:42:22;;;;;;;8.20;5.03;;;5.30;99.90;;;;;;5015636;28;20021;-85
2022/04/17 04:46:06;;;;;;;8.07;4.40;;;5.30;99.90;;;;;;5015839;28;20041;-86
2022/04/17 04:47:34;;;;;;;7.00;4.63;;;5.30;99.90;;;;;;5016413;28;20089;-86
2022/04/17 04:50:00;;;;;;;8.20;4.93;;;5.30;99.90;;;;;;5014876;28;20468;-85
2022/04/17 04:52:25;;;;;;;6.63;4.93;;;5.30;99.90;;;;;;5015026;28;20030;-87
2022/04/17 04:54:51;;;;;;;7.65;5.22;;;5.30;99.90;;;;;;5015007;28;20032;-86
2022/04/17 04:57:16;;;;;;;8.18;4.82;;;5.30;99.90;;;;;;5015296;28;20512;-86
2022/04/17 04:59:42;;;;;;;7.82;4.75;;;5.30;99.90;;;;;;5016622;28;20057;-86
2022/04/17 05:02:07;;;;;;;8.30;5.30;;;5.30;99.90;;;;;;5016204;28;20376;-87
2022/04/17 05:04:33;;;;;;;6.35;4.65;;;5.30;99.90;;;;;;5016645;28;20080;-87
2022/04/17 05:06:59;;;;;;;6.03;4.43;;;5.30;99.90;;;;;;5015259;28;20464;-86
2022/04/17 05:09:25;;;;;;;6.80;4.60;;;5.30;99.90;;;;;;5015438;28;20465;-85
2022/04/17 05:11:50;;;;;;;6.80;4.20;;;5.30;99.90;;;;;;5015631;28;20030;-85
2022/04/17 05:14:20;;;;;;;8.23;5.15;;;5.30;99.90;;;;;;5016122;28;20014;-87
2022/04/17 05:16:45;;;;;;;7.22;4.68;;;5.30;99.90;;;;;;5015551;28;20026;-87
2022/04/17 05:19:27;;;;;;;8.00;4.32;;;5.40;99.90;;;;;;5015267;28;20030;-86
2022/04/17 05:21:58;;;;;;;6.03;4.13;;;5.40;99.90;;;;;;5015267;28;20026;-87
2022/04/17 05:24:24;;;;;;;5.85;4.20;;;5.40;99.90;;;;;;5014910;28;20029;-88
2022/04/17 05:26:50;;;;;;;6.80;4.78;;;5.40;99.90;;;;;;5015352;28;20033;-86
2022/04/17 05:29:15;;;;;;;7.57;4.57;;;5.40;99.90;;;;;;5015244;28;20034;-86
2022/04/17 05:31:41;;;;;;;6.82;4.55;;;5.40;99.90;;;;;;5014791;28;20036;-86
2022/04/17 05:34:07;;;;;;;7.72;4.63;;;5.50;99.90;;;;;;5015044;28;20017;-87
2022/04/17 05:36:32;;;;;;;9.05;5.40;;;5.50;99.90;;;;;;5014529;28;20057;-87
2022/04/17 05:38:58;;;;;;;6.90;4.68;;;5.60;99.90;;;;;;5014580;28;20480;-87
2022/04/17 05:41:24;;;;;;;6.78;4.70;;;5.60;99.90;;;;;;5015712;28;20389;-88
2022/04/17 05:43:51;;;;;;;7.60;5.13;;;5.70;99.90;;;;;;5017358;28;20014;-86
2022/04/17 05:46:18;;;;;;;7.22;4.95;;;5.80;99.90;;;;;;5018893;28;20030;-86
2022/04/17 05:48:43;;;;;;;7.70;5.10;;;5.80;99.90;;;;;;5016137;28;20032;-86
2022/04/17 05:51:09;;;;;;;7.95;5.40;;;5.90;99.90;;;;;;5016096;28;20104;-87
2022/04/17 05:53:35;;;;;;;8.35;5.53;;;6.00;99.90;;;;;;5014951;28;20593;-88
2022/04/17 05:56:01;;;;;;;8.50;5.22;;;6.10;99.90;;;;;;5014620;28;20041;-88
2022/04/17 05:58:29;;;;;;;8.82;5.65;;;6.20;99.90;;;;;;5014366;28;20388;-89
2022/04/17 06:00:55;;;;;;;8.15;4.97;;;6.30;99.90;;;;;;5013757;28;20030;-88
2022/04/17 06:03:21;;;;;;;9.15;5.63;;;6.30;99.90;;;;;;5014373;28;20057;-87
2022/04/17 06:05:48;;;;;;;8.55;5.70;;;6.40;99.90;;;;;;5013906;28;20018;-86
2022/04/17 06:08:13;;;;;;;8.25;5.75;;;6.40;99.90;;;;;;5015531;28;20104;-87
2022/04/17 06:10:39;;;;;;;10.13;6.10;;;6.50;99.90;;;;;;5015637;28;20057;-86
2022/04/17 06:13:04;;;;;;;9.88;5.95;;;6.60;99.90;;;;;;5013788;28;20022;-87
2022/04/17 06:15:30;;;;;;;10.23;6.68;;;6.60;99.90;;;;;;5014975;28;20034;-87
2022/04/17 06:17:58;;;;;;;9.25;6.78;;;6.70;99.90;;;;;;5014179;28;20148;-86
2022/04/17 06:20:23;;;;;;;9.60;6.20;;;6.80;99.90;;;;;;5015660;28;20018;-88
2022/04/17 06:22:50;;;;;;;11.20;7.13;;;6.90;99.90;;;;;;5016247;28;20030;-88
2022/04/17 06:25:16;;;;;;;10.45;6.88;;;7.00;99.90;;;;;;5015095;28;20108;-88
2022/04/17 06:27:46;;;;;;;9.07;6.40;;;7.00;99.90;;;;;;5014395;28;20061;-88
2022/04/17 06:30:17;;;;;;;9.35;6.03;;;7.10;99.90;;;;;;5016262;28;20036;-87
2022/04/17 06:32:44;;;;;;;9.48;5.55;;;7.20;99.90;;;;;;5020787;28;20022;-85
2022/04/17 06:35:11;;;;;;;8.20;5.55;;;7.20;99.90;;;;;;5021700;28;20053;-86
2022/04/17 06:37:52;;;;;;;8.55;5.57;;;7.30;99.90;;;;;;5023581;28;20049;-86
2022/04/17 06:40:19;;;;;;;9.20;6.07;;;7.40;99.90;;;;;;5023687;28;20018;-87
2022/04/17 06:42:47;;;;;;;8.85;5.68;;;7.40;99.90;;;;;;5002939;28;20033;-88
2022/04/17 06:45:13;;;;;;;9.07;6.18;;;7.40;99.90;;;;;;5021603;28;20030;-85
2022/04/17 06:47:39;;;;;;;7.55;5.35;;;7.50;99.90;;;;;;5022656;28;20022;-86
2022/04/17 06:50:05;;;;;;;7.05;4.85;;;7.50;99.90;;;;;;4999009;28;20029;-86
2022/04/17 06:52:32;;;;;;;11.30;6.80;;;7.60;99.90;;;;;;5018292;28;20028;-86
2022/04/17 06:54:57;;;;;;;8.38;6.00;;;7.70;99.90;;;;;;4997987;28;20040;-87
2022/04/17 06:57:33;;;;;;;10.63;7.45;;;7.70;99.90;;;;;;4996947;28;20031;-87
2022/04/17 07:00:09;;;;;;;10.02;6.80;;;7.80;99.90;;;;;;5014551;28;20022;-86
2022/04/17 07:02:35;;;;;;;8.73;5.55;;;7.90;99.90;;;;;;4996830;28;20018;-88
2022/04/17 07:05:01;;;;;;;8.52;6.32;;;8.00;99.90;;;;;;4997215;28;20025;-88
2022/04/17 07:07:26;;;;;;;10.68;6.35;;;8.00;99.90;;;;;;5015302;28;20030;-89
2022/04/17 07:09:52;;;;;;;10.60;7.63;;;8.10;99.90;;;;;;4996650;28;20487;-88
2022/04/17 07:12:17;;;;;;;10.68;7.30;;;8.10;99.60;;;;;;4998944;28;20033;-86
2022/04/17 07:14:44;;;;;;;10.55;6.32;;;8.20;99.20;;;;;;5000899;28;20048;-87
2022/04/17 07:17:09;;;;;;;10.50;6.68;;;8.30;99.70;;;;;;5018023;28;20030;-88
2022/04/17 07:19:35;;;;;;;10.60;6.45;;;8.30;99.10;;;;;;5001074;28;20029;-86
2022/04/17 07:22:01;;;;;;;10.50;7.38;;;8.40;99.60;;;;;;5018650;28;20030;-87
2022/04/17 07:24:26;;;;;;;9.88;6.45;;;8.50;98.50;;;;;;5018218;28;20040;-88
2022/04/17 07:26:56;;;;;;;8.93;5.97;;;8.50;99.00;;;;;;5018280;28;20018;-88
2022/04/17 07:29:26;;;;;;;8.32;5.82;;;8.60;98.90;;;;;;5018516;28;20049;-85
2022/04/17 07:31:53;;;;;;;8.98;5.63;;;8.70;99.00;;;;;;5000591;28;20104;-86
2022/04/17 07:34:22;;;;;;;8.13;5.03;;;8.70;99.10;;;;;;5018164;28;20026;-87
2022/04/17 07:36:47;;;;;;;11.50;7.10;;;8.80;99.30;;;;;;5004004;28;20108;-87
2022/04/17 07:39:17;;;;;;;8.20;5.47;;;8.90;97.90;;;;;;5017040;28;20468;-87
2022/04/17 07:41:44;;;;;;;8.20;5.07;;;9.00;97.90;;;;;;5018062;28;20062;-87
2022/04/17 07:44:12;;;;;;;9.82;6.22;;;9.10;98.40;;;;;;5017989;28;20014;-87
2022/04/17 07:46:42;;;;;;;7.72;5.07;;;9.10;97.70;;;;;;5017935;28;20040;-86
2022/04/17 07:49:08;;;;;;;7.78;5.88;;;9.30;97.90;;;;;;5016633;28;20025;-86
2022/04/17 07:51:35;;;;;;;7.07;4.70;;;9.30;96.90;;;;;;5017895;28;20112;-87
2022/04/17 07:54:02;;;;;;;8.77;4.95;;;9.40;97.50;;;;;;5015909;28;20029;-86
2022/04/17 07:56:27;;;;;;;9.45;5.53;;;9.50;97.50;;;;;;5014655;28;20425;-87
2022/04/17 07:58:53;;;;;;;6.75;4.30;;;9.50;97.20;;;;;;5015622;28;20050;-88
2022/04/17 08:01:19;;;;;;;6.10;3.72;;;9.60;97.60;;;;;;5015107;28;20030;-87
2022/04/17 08:06:10;;;;;;;8.52;5.68;;;9.70;97.90;;;;;;5019230;28;20042;-87
2022/04/17 08:08:37;;;;;;;9.82;6.28;;;9.80;97.50;;;;;;5019024;28;20117;-85
2022/04/17 08:11:04;;;;;;;10.45;5.60;;;9.80;97.10;;;;;;5022423;28;20018;-87
2022/04/17 08:13:31;;;;;;;8.18;5.30;;;9.90;97.20;;;;;;5026858;28;20050;-87
2022/04/17 08:15:56;;;;;;;8.68;5.18;;;10.00;96.80;;;;;;5018576;28;20057;-89
2022/04/17 08:18:22;;;;;;;6.82;5.22;;;10.00;96.80;;;;;;5016664;28;20077;-86
2022/04/17 08:20:50;;;;;;;8.00;4.85;;;10.10;96.40;;;;;;5014681;28;20033;-86
2022/04/17 08:23:17;;;;;;;8.23;5.43;;;10.20;96.60;;;;;;5015359;28;20022;-88
2022/04/17 08:25:43;;;;;;;6.60;4.95;;;10.30;96.30;;;;;;5015393;28;20014;-87
2022/04/17 08:28:10;;;;;;;7.30;4.65;;;10.40;96.80;;;;;;5015201;28;20026;-87
2022/04/17 08:30:42;;;;;;;7.07;4.55;;;10.50;97.10;;;;;;5017907;28;20050;-93
2022/04/17 08:33:08;;;;;;;6.05;4.40;;;10.50;96.90;;;;;;5013498;28;20472;-86
2022/04/17 08:35:34;;;;;;;5.43;3.90;;;10.60;97.00;;;;;;5012516;28;20026;-87
2022/04/17 08:38:00;;;;;;;8.50;5.10;;;10.60;97.20;;;;;;5014495;28;20132;-90
2022/04/17 08:40:29;;;;;;;7.88;5.00;;;10.80;95.90;;;;;;5016166;28;20017;-88
2022/04/17 08:42:56;;;;;;;5.70;4.28;;;10.80;96.30;;;;;;5032939;28;20619;-88
2022/04/17 08:45:23;;;;;;;6.97;4.22;;;10.90;96.80;;;;;;5016240;28;20022;-89
2022/04/17 08:47:50;;;;;;;5.65;3.70;;;11.00;96.90;;;;;;5018381;28;20480;-88
2022/04/17 08:50:17;;;;;;;5.95;3.75;;;11.00;97.00;;;;;;5017508;28;20504;-88
2022/04/17 08:52:49;;;;;;;5.88;3.90;;;11.10;97.10;;;;;;5014175;28;20041;-87
2022/04/17 08:55:15;;;;;;;6.68;4.72;;;11.20;96.10;;;;;;5012824;28;20018;-87
2022/04/17 08:57:41;;;;;;;6.63;3.65;;;11.30;95.40;;;;;;5013100;28;20041;-88
2022/04/17 09:00:10;;;;;;;5.50;4.07;;;11.50;96.40;;;;;;5013074;28;20496;-91
2022/04/17 09:02:36;;;;;;;5.68;3.55;;;11.60;95.40;;;;;;5013445;28;20437;-88
2022/04/17 09:05:12;;;;;;;6.43;3.55;;;11.70;94.70;;;;;;5013669;28;20034;-87
2022/04/17 09:07:58;;;;;;;5.40;3.22;;;11.80;94.50;;;;;;5013313;28;20138;-88
2022/04/17 09:10:25;;;;;;;5.25;3.40;;;12.00;94.50;;;;;;5014024;28;20022;-87
2022/04/17 09:12:54;;;;;;;6.53;3.58;;;12.20;94.70;;;;;;5011785;28;20492;-90
2022/04/17 09:15:36;;;;;;;3.90;2.72;;;12.30;94.20;;;;;;5012884;28;20022;-91
2022/04/17 09:18:06;;;;;;;5.95;2.72;;;12.30;94.50;;;;;;5013579;28;20621;-85
2022/04/17 09:20:32;;;;;;;4.28;2.15;;;12.40;94.60;;;;;;5013228;28;20053;-89
2022/04/17 09:23:00;;;;;;;4.60;2.70;;;12.50;94.60;;;;;;5014104;28;20480;-90
2022/04/17 09:25:26;;;;;;;3.92;2.78;;;12.60;94.60;;;;;;5014084;28;20028;-88
2022/04/17 09:28:14;;;;;;;5.13;2.45;;;12.70;94.00;;;;;;5014031;28;20034;-87
2022/04/17 09:30:47;;;;;;;5.57;3.33;;;12.70;94.40;;;;;;5014469;28;20088;-89
2022/04/17 09:33:14;;;;;;;36.58;5.15;;;12.90;93.50;;;;;;5012677;28;20030;-83
2022/04/17 09:35:40;;;;;;;10.18;3.08;;;12.90;93.60;;;;;;5008622;28;20052;-81
2022/04/17 09:38:08;;;;;;;4.60;3.15;;;13.00;94.50;;;;;;5011167;28;20674;-86
2022/04/17 09:40:36;;;;;;;2.97;1.70;;;14.00;94.30;;;;;;4994018;28;20025;-90
2022/04/17 09:43:12;;;;;;;2.95;1.85;;;15.60;94.20;;;;;;4998293;28;20088;-93
2022/04/17 09:45:59;;;;;;;5.05;3.10;;;17.20;93.30;;;;;;4994295;28;20054;-85
2022/04/17 09:48:29;;;;;;;5.97;2.58;;;18.50;89.50;;;;;;4994264;28;20029;-86
2022/04/17 09:50:55;;;;;;;3.53;2.10;;;19.30;88.80;;;;;;4998140;28;20104;-93
2022/04/17 09:53:40;;;;;;;3.95;2.50;;;20.20;89.00;;;;;;4997631;28;20123;-88
2022/04/17 09:56:07;;;;;;;4.28;2.40;;;20.90;82.20;;;;;;4997964;28;20045;-86
2022/04/17 09:58:51;;;;;;;3.22;1.98;;;21.30;82.20;;;;;;5015423;28;20108;-84
2022/04/17 10:01:18;;;;;;;5.47;3.28;;;21.80;81.20;;;;;;4995142;28;20022;-85
2022/04/17 10:03:46;;;;;;;4.15;2.53;;;22.00;72.10;;;;;;5012028;28;20029;-85
2022/04/17 10:06:12;;;;;;;3.35;2.00;;;22.00;72.80;;;;;;5015756;28;20038;-87
2022/04/17 10:08:42;;;;;;;2.85;1.75;;;22.10;73.30;;;;;;4997087;28;20018;-88
2022/04/17 10:11:08;;;;;;;3.10;1.50;;;22.50;74.30;;;;;;5016465;28;20018;-85
2022/04/17 10:13:35;;;;;;;6.15;3.00;;;22.80;73.90;;;;;;5001603;28;20028;-87
2022/04/17 10:16:03;;;;;;;3.42;2.13;;;22.80;67.50;;;;;;5030444;28;20044;-88
2022/04/17 10:18:38;;;;;;;3.03;1.90;;;22.80;69.50;;;;;;5030403;28;20038;-88
2022/04/17 10:21:06;;;;;;;4.57;2.90;;;23.20;70.20;;;;;;4998085;28;20022;-87
2022/04/17 10:23:35;;;;;;;3.53;2.58;;;23.50;66.80;;;;;;5014713;28;20122;-85
2022/04/17 10:26:03;;;;;;;4.03;1.77;;;23.40;68.10;;;;;;5029502;28;20018;-85
2022/04/17 10:28:34;;;;;;;3.13;1.83;;;23.70;68.80;;;;;;4997720;28;20029;-87
2022/04/17 10:31:15;;;;;;;3.08;1.85;;;24.00;68.80;;;;;;4998890;28;20021;-86
2022/04/17 10:33:49;;;;;;;3.05;2.13;;;24.40;68.40;;;;;;4997999;28;20105;-86
2022/04/17 10:36:27;;;;;;;3.47;1.80;;;24.60;68.00;;;;;;4996867;28;20038;-88
2022/04/17 10:39:09;;;;;;;3.17;1.98;;;24.60;68.20;;;;;;4997555;28;20037;-88
2022/04/17 10:41:34;;;;;;;3.50;2.22;;;24.80;67.10;;;;;;4998270;28;20033;-87
2022/04/17 10:44:03;;;;;;;3.05;2.20;;;24.70;66.40;;;;;;5016086;28;20022;-87
2022/04/17 10:46:28;;;;;;;3.92;2.10;;;24.80;66.20;;;;;;5015916;28;20032;-88
2022/04/17 10:49:04;;;;;;;3.28;1.83;;;25.00;65.60;;;;;;4999467;28;20022;-84
2022/04/17 10:51:34;;;;;;;4.15;2.08;;;25.20;65.70;;;;;;5014372;28;20480;-84
2022/04/17 10:54:04;;;;;;;4.03;1.55;;;25.40;65.40;;;;;;4998043;28;20018;-87
2022/04/17 10:56:34;;;;;;;3.20;1.60;;;25.60;65.60;;;;;;4998150;28;20037;-87
2022/04/17 10:59:08;;;;;;;2.63;1.95;;;25.90;65.30;;;;;;4998230;28;20100;-85
2022/04/17 11:01:42;;;;;;;3.20;1.80;;;26.10;62.80;;;;;;4996991;28;20443;-88
2022/04/17 11:04:15;;;;;;;2.67;1.70;;;26.20;62.00;;;;;;5015046;28;20026;-87
2022/04/17 11:06:42;;;;;;;3.17;2.00;;;26.20;62.30;;;;;;4997597;28;20118;-86
2022/04/17 11:09:19;;;;;;;3.63;2.17;;;26.00;60.20;;;;;;4997157;28;20034;-86
2022/04/17 11:11:46;;;;;;;3.90;2.53;;;25.50;59.00;;;;;;4996786;28;20025;-87
2022/04/17 11:14:22;;;;;;;3.03;2.15;;;25.40;56.20;;;;;;4998545;28;20124;-85
2022/04/17 11:17:11;;;;;;;3.00;1.60;;;25.40;58.40;;;;;;4996557;28;20030;-86
2022/04/17 11:19:39;;;;;;;3.13;1.73;;;25.60;58.60;;;;;;4997848;28;20026;-86
2022/04/17 11:22:07;;;;;;;3.50;1.90;;;25.90;58.90;;;;;;5015961;28;20113;-86
2022/04/17 11:24:54;;;;;;;4.38;2.60;;;26.10;59.50;;;;;;4998504;28;20499;-87
2022/04/17 11:27:45;;;;;;;3.92;2.67;;;26.10;57.50;;;;;;4997488;28;20431;-85
2022/04/17 11:30:13;;;;;;;3.53;2.63;;;26.00;56.50;;;;;;5014309;28;20535;-84
2022/04/17 11:32:39;;;;;;;4.10;2.78;;;25.90;57.30;;;;;;4999358;28;20404;-89
2022/04/17 11:35:09;;;;;;;3.38;2.60;;;25.90;57.70;;;;;;4997932;28;20026;-87
2022/04/17 11:37:35;;;;;;;3.83;2.30;;;25.90;57.10;;;;;;5006591;28;20041;-85
2022/04/17 11:40:12;;;;;;;3.70;1.95;;;26.10;57.70;;;;;;5013767;28;20041;-86
2022/04/17 11:42:45;;;;;;;3.45;2.13;;;26.70;57.40;;;;;;5014068;28;20026;-87
2022/04/17 11:45:12;;;;;;;3.08;1.80;;;27.00;56.80;;;;;;5015206;28;20018;-87
2022/04/17 11:47:40;;;;;;;3.35;1.70;;;27.20;55.90;;;;;;5016218;28;20061;-86
2022/04/17 11:50:09;;;;;;;3.90;2.25;;;27.20;55.70;;;;;;5014305;28;20075;-86
2022/04/17 11:52:35;;;;;;;4.47;2.10;;;26.90;55.20;;;;;;5013905;28;20018;-89
2022/04/17 11:55:01;;;;;;;4.20;2.40;;;26.80;53.90;;;;;;5014087;28;20036;-88
2022/04/17 11:57:27;;;;;;;4.43;2.50;;;26.50;52.80;;;;;;4998716;28;20030;-87
2022/04/17 11:59:55;;;;;;;3.95;2.08;;;26.50;53.20;;;;;;5015138;28;20080;-84
2022/04/17 12:02:29;;;;;;;3.28;1.73;;;26.50;52.90;;;;;;5016955;28;20079;-85
2022/04/17 12:05:05;;;;;;;4.32;1.63;;;26.70;54.10;;;;;;5016346;28;20014;-85
2022/04/17 12:07:30;;;;;;;3.13;2.00;;;27.00;55.40;;;;;;5017904;28;20028;-86
2022/04/17 12:10:07;;;;;;;3.42;1.90;;;27.20;55.10;;;;;;5016307;28;20038;-84
2022/04/17 12:12:34;;;;;;;3.50;1.85;;;26.90;55.10;;;;;;5018086;28;20026;-88
2022/04/17 12:15:03;;;;;;;3.45;1.95;;;26.70;55.00;;;;;;5016892;28;20022;-88
2022/04/17 12:17:33;;;;;;;2.92;1.60;;;26.90;55.40;;;;;;5017542;28;20034;-88
2022/04/17 12:20:00;;;;;;;4.13;1.52;;;27.00;55.80;;;;;;5017440;28;20026;-87
2022/04/17 12:22:27;;;;;;;2.85;1.60;;;27.30;55.80;;;;;;5017438;28;20018;-89
2022/04/17 12:24:53;;;;;;;3.55;1.83;;;27.50;55.40;;;;;;5017665;28;20033;-88
2022/04/17 12:27:20;;;;;;;2.72;1.70;;;27.40;54.60;;;;;;5018618;28;20079;-85
2022/04/17 12:29:49;;;;;;;2.20;1.40;;;27.40;55.50;;;;;;5017335;28;20036;-83
2022/04/17 12:32:21;;;;;;;3.45;2.05;;;27.60;55.90;;;;;;5019775;28;20089;-86
2022/04/17 12:35:01;;;;;;;3.40;1.83;;;27.60;55.10;;;;;;5019504;28;20021;-86
2022/04/17 12:37:28;;;;;;;3.25;2.00;;;27.80;55.20;;;;;;5019832;28;20092;-89
2022/04/17 12:40:14;;;;;;;4.90;2.33;;;28.10;54.80;;;;;;5020733;28;20038;-88
2022/04/17 12:42:40;;;;;;;4.15;2.25;;;28.00;53.20;;;;;;5001503;28;20033;-88
2022/04/17 12:45:12;;;;;;;4.35;2.30;;;27.40;54.80;;;;;;5003691;28;20547;-89
2022/04/17 12:47:39;;;;;;;4.30;2.45;;;27.10;55.00;;;;;;4987024;28;20026;-92
2022/04/17 12:50:22;;;;;;;4.45;1.88;;;27.10;56.00;;;;;;5003708;28;20025;-88
2022/04/17 12:52:56;;;;;;;3.83;2.03;;;27.30;56.30;;;;;;5029918;28;20033;-87
2022/04/17 13:27:38;;;;;;;5.13;2.03;;;28.10;56.30;;;;;;2369734;23;20099;-88
2022/04/17 13:30:17;;;;;;;3.80;2.30;;;28.00;56.50;;;;;;4978491;28;20039;-91
2022/04/17 14:27:41;;;;;;;3.17;2.20;;;26.60;54.20;;;;;;4677432;23;20528;-88
2022/04/17 14:30:07;;;;;;;2.50;2.00;;;26.60;54.20;;;;;;4994739;28;20041;-88
2022/04/17 14:32:32;;;;;;;3.45;1.95;;;26.70;54.10;;;;;;4980003;28;20089;-89
2022/04/17 14:34:58;;;;;;;2.90;1.70;;;27.00;53.80;;;;;;4979007;28;20105;-86
2022/04/17 14:37:25;;;;;;;2.88;1.77;;;27.30;53.90;;;;;;4981224;28;20122;-87
2022/04/17 14:39:51;;;;;;;2.95;1.50;;;27.70;53.20;;;;;;4998932;28;20046;-87
2022/04/17 14:42:16;;;;;;;3.65;2.40;;;28.00;54.00;;;;;;4996025;28;20045;-88
2022/04/17 14:44:42;;;;;;;2.97;1.85;;;27.60;50.20;;;;;;4982351;28;20512;-86